sensor_id;sensor_type;location;lat;lon;timestamp;P1;durP1;ratioP1;P2;durP2;ratioP2
2674;SDS011;1347;42.122;24.746;2023-03-12T00:01:13;2.00;;;1.67;;
2674;SDS011;1347;42.122;24.746;2023-03-12T00:03:41;1.63;;;1.53;;
2674;SDS011;1347;42.122;24.746;2023-03-12T00:06:10;2.20;;;1.70;;
2674;SDS011;1347;42.122;24.746;2023-03-12T00:08:37;2.67;;;1.90;;
2674;SDS011;1347;42.122;24.746;2023-03-12T00:11:05;2.60;;;2.40;;
2674;SDS011;1347;42.122;24.746;2023-03-12T00:13:33;2.87;;;1.70;;
2674;SDS011;1347;42.122;24.746;2023-03-12T00:16:04;3.00;;;1.90;;
2674;SDS011;1347;42.122;24.746;2023-03-12T00:18:32;2.23;;;1.57;;
2674;SDS011;1347;42.122;24.746;2023-03-12T00:20:59;2.90;;;1.93;;
2674;SDS011;1347;42.122;24.746;2023-03-12T00:23:27;2.40;;;2.20;;
2674;SDS011;1347;42.122;24.746;2023-03-12T00:25:58;2.73;;;2.03;;
2674;SDS011;1347;42.122;24.746;2023-03-12T00:28:26;3.87;;;2.20;;
2674;SDS011;1347;42.122;24.746;2023-03-12T00:30:53;4.30;;;1.50;;
2674;SDS011;1347;42.122;24.746;2023-03-12T00:33:22;3.37;;;2.10;;
2674;SDS011;1347;42.122;24.746;2023-03-12T00:35:49;3.37;;;2.30;;
2674;SDS011;1347;42.122;24.746;2023-03-12T00:38:16;3.40;;;2.03;;
2674;SDS011;1347;42.122;24.746;2023-03-12T00:40:44;2.43;;;1.80;;
2674;SDS011;1347;42.122;24.746;2023-03-12T00:43:11;3.40;;;2.60;;
2674;SDS011;1347;42.122;24.746;2023-03-12T00:45:38;2.90;;;2.23;;
2674;SDS011;1347;42.122;24.746;2023-03-12T00:48:05;2.70;;;2.50;;
2674;SDS011;1347;42.122;24.746;2023-03-12T00:50:32;12.07;;;3.63;;
2674;SDS011;1347;42.122;24.746;2023-03-12T00:52:59;4.17;;;2.77;;
2674;SDS011;1347;42.122;24.746;2023-03-12T00:55:26;3.17;;;2.20;;
2674;SDS011;1347;42.122;24.746;2023-03-12T00:57:55;2.23;;;2.03;;
2674;SDS011;1347;42.122;24.746;2023-03-12T01:00:22;7.93;;;2.63;;
2674;SDS011;1347;42.122;24.746;2023-03-12T01:02:48;4.13;;;2.53;;
2674;SDS011;1347;42.122;24.746;2023-03-12T01:05:16;10.10;;;2.00;;
2674;SDS011;1347;42.122;24.746;2023-03-12T01:07:42;3.43;;;2.40;;
2674;SDS011;1347;42.122;24.746;2023-03-12T01:10:10;4.60;;;2.17;;
2674;SDS011;1347;42.122;24.746;2023-03-12T01:12:39;7.80;;;2.60;;
2674;SDS011;1347;42.122;24.746;2023-03-12T01:15:10;3.20;;;2.20;;
2674;SDS011;1347;42.122;24.746;2023-03-12T01:17:39;4.90;;;2.87;;
2674;SDS011;1347;42.122;24.746;2023-03-12T01:20:06;9.80;;;2.70;;
2674;SDS011;1347;42.122;24.746;2023-03-12T01:22:35;3.90;;;2.30;;
2674;SDS011;1347;42.122;24.746;2023-03-12T01:25:02;3.20;;;2.90;;
2674;SDS011;1347;42.122;24.746;2023-03-12T01:27:29;5.77;;;2.70;;
2674;SDS011;1347;42.122;24.746;2023-03-12T01:29:56;11.03;;;2.70;;
2674;SDS011;1347;42.122;24.746;2023-03-12T01:32:24;3.40;;;2.30;;
2674;SDS011;1347;42.122;24.746;2023-03-12T01:34:51;5.23;;;2.83;;
2674;SDS011;1347;42.122;24.746;2023-03-12T01:37:18;3.30;;;2.30;;
2674;SDS011;1347;42.122;24.746;2023-03-12T01:39:45;3.10;;;1.90;;
2674;SDS011;1347;42.122;24.746;2023-03-12T01:42:12;4.00;;;3.23;;
2674;SDS011;1347;42.122;24.746;2023-03-12T01:44:52;7.73;;;2.37;;
2674;SDS011;1347;42.122;24.746;2023-03-12T01:47:20;5.20;;;2.70;;
2674;SDS011;1347;42.122;24.746;2023-03-12T01:49:49;8.67;;;3.53;;
2674;SDS011;1347;42.122;24.746;2023-03-12T01:52:18;7.80;;;2.87;;
2674;SDS011;1347;42.122;24.746;2023-03-12T01:54:47;4.40;;;3.70;;
2674;SDS011;1347;42.122;24.746;2023-03-12T01:57:20;5.97;;;3.20;;
2674;SDS011;1347;42.122;24.746;2023-03-12T01:59:51;8.70;;;4.07;;
2674;SDS011;1347;42.122;24.746;2023-03-12T02:02:19;5.90;;;3.90;;
2674;SDS011;1347;42.122;24.746;2023-03-12T02:04:56;4.73;;;3.40;;
2674;SDS011;1347;42.122;24.746;2023-03-12T02:07:34;6.30;;;4.57;;
2674;SDS011;1347;42.122;24.746;2023-03-12T02:10:01;5.23;;;3.70;;
2674;SDS011;1347;42.122;24.746;2023-03-12T02:12:29;10.33;;;3.97;;
2674;SDS011;1347;42.122;24.746;2023-03-12T02:14:56;4.43;;;3.77;;
2674;SDS011;1347;42.122;24.746;2023-03-12T02:17:23;6.60;;;4.50;;
2674;SDS011;1347;42.122;24.746;2023-03-12T02:19:53;5.40;;;3.93;;
2674;SDS011;1347;42.122;24.746;2023-03-12T02:22:32;3.90;;;3.50;;
2674;SDS011;1347;42.122;24.746;2023-03-12T02:25:01;5.30;;;4.80;;
2674;SDS011;1347;42.122;24.746;2023-03-12T02:27:38;4.93;;;4.53;;
2674;SDS011;1347;42.122;24.746;2023-03-12T02:30:06;6.60;;;4.37;;
2674;SDS011;1347;42.122;24.746;2023-03-12T02:32:34;8.23;;;4.80;;
2674;SDS011;1347;42.122;24.746;2023-03-12T02:35:05;5.10;;;4.03;;
2674;SDS011;1347;42.122;24.746;2023-03-12T02:37:32;13.13;;;5.03;;
2674;SDS011;1347;42.122;24.746;2023-03-12T02:40:01;8.03;;;5.07;;
2674;SDS011;1347;42.122;24.746;2023-03-12T02:42:35;6.00;;;4.70;;
2674;SDS011;1347;42.122;24.746;2023-03-12T02:45:03;6.50;;;4.60;;
2674;SDS011;1347;42.122;24.746;2023-03-12T02:47:31;5.47;;;4.83;;
2674;SDS011;1347;42.122;24.746;2023-03-12T02:49:57;7.03;;;4.73;;
2674;SDS011;1347;42.122;24.746;2023-03-12T02:52:24;23.50;;;5.17;;
2674;SDS011;1347;42.122;24.746;2023-03-12T02:54:51;6.17;;;4.23;;
2674;SDS011;1347;42.122;24.746;2023-03-12T02:57:18;10.00;;;5.23;;
2674;SDS011;1347;42.122;24.746;2023-03-12T02:59:46;6.40;;;4.20;;
2674;SDS011;1347;42.122;24.746;2023-03-12T03:02:13;12.00;;;4.53;;
2674;SDS011;1347;42.122;24.746;2023-03-12T03:04:40;4.83;;;3.93;;
2674;SDS011;1347;42.122;24.746;2023-03-12T03:07:07;7.93;;;5.07;;
2674;SDS011;1347;42.122;24.746;2023-03-12T03:09:34;6.87;;;4.47;;
2674;SDS011;1347;42.122;24.746;2023-03-12T03:12:01;5.23;;;4.83;;
2674;SDS011;1347;42.122;24.746;2023-03-12T03:14:27;4.80;;;4.30;;
2674;SDS011;1347;42.122;24.746;2023-03-12T03:16:56;5.87;;;4.40;;
2674;SDS011;1347;42.122;24.746;2023-03-12T03:19:23;8.30;;;4.10;;
2674;SDS011;1347;42.122;24.746;2023-03-12T03:21:50;7.00;;;4.20;;
2674;SDS011;1347;42.122;24.746;2023-03-12T03:24:17;5.90;;;4.00;;
2674;SDS011;1347;42.122;24.746;2023-03-12T03:26:43;5.37;;;4.80;;
2674;SDS011;1347;42.122;24.746;2023-03-12T03:29:10;5.63;;;4.70;;
2674;SDS011;1347;42.122;24.746;2023-03-12T03:31:37;5.63;;;4.40;;
2674;SDS011;1347;42.122;24.746;2023-03-12T03:34:06;5.20;;;3.80;;
2674;SDS011;1347;42.122;24.746;2023-03-12T03:36:32;5.33;;;4.10;;
2674;SDS011;1347;42.122;24.746;2023-03-12T03:38:59;3.63;;;3.33;;
2674;SDS011;1347;42.122;24.746;2023-03-12T03:41:26;4.10;;;3.57;;
2674;SDS011;1347;42.122;24.746;2023-03-12T03:43:55;4.00;;;3.60;;
2674;SDS011;1347;42.122;24.746;2023-03-12T03:46:23;4.10;;;3.50;;
2674;SDS011;1347;42.122;24.746;2023-03-12T03:48:51;4.23;;;3.83;;
2674;SDS011;1347;42.122;24.746;2023-03-12T03:51:19;4.73;;;3.30;;
2674;SDS011;1347;42.122;24.746;2023-03-12T03:53:46;3.63;;;3.30;;
2674;SDS011;1347;42.122;24.746;2023-03-12T03:56:13;4.23;;;3.77;;
2674;SDS011;1347;42.122;24.746;2023-03-12T03:58:41;5.23;;;3.87;;
2674;SDS011;1347;42.122;24.746;2023-03-12T04:01:08;5.53;;;3.17;;
2674;SDS011;1347;42.122;24.746;2023-03-12T04:03:35;5.73;;;3.73;;
2674;SDS011;1347;42.122;24.746;2023-03-12T04:06:02;4.20;;;3.27;;
2674;SDS011;1347;42.122;24.746;2023-03-12T04:08:32;4.47;;;3.53;;
2674;SDS011;1347;42.122;24.746;2023-03-12T04:11:05;7.40;;;3.03;;
2674;SDS011;1347;42.122;24.746;2023-03-12T04:13:32;4.70;;;3.40;;
2674;SDS011;1347;42.122;24.746;2023-03-12T04:15:59;6.23;;;3.40;;
2674;SDS011;1347;42.122;24.746;2023-03-12T04:18:26;4.67;;;4.27;;
2674;SDS011;1347;42.122;24.746;2023-03-12T04:20:53;3.47;;;3.17;;
2674;SDS011;1347;42.122;24.746;2023-03-12T04:23:20;4.40;;;3.53;;
2674;SDS011;1347;42.122;24.746;2023-03-12T04:25:48;5.50;;;3.93;;
2674;SDS011;1347;42.122;24.746;2023-03-12T04:28:15;7.23;;;3.80;;
2674;SDS011;1347;42.122;24.746;2023-03-12T04:30:42;7.80;;;3.23;;
2674;SDS011;1347;42.122;24.746;2023-03-12T04:33:09;3.67;;;3.10;;
2674;SDS011;1347;42.122;24.746;2023-03-12T04:35:36;6.50;;;3.20;;
2674;SDS011;1347;42.122;24.746;2023-03-12T04:38:03;5.27;;;3.23;;
2674;SDS011;1347;42.122;24.746;2023-03-12T04:40:30;4.90;;;3.40;;
2674;SDS011;1347;42.122;24.746;2023-03-12T04:42:58;8.43;;;4.00;;
2674;SDS011;1347;42.122;24.746;2023-03-12T04:45:25;3.57;;;3.27;;
2674;SDS011;1347;42.122;24.746;2023-03-12T04:47:51;5.13;;;3.40;;
2674;SDS011;1347;42.122;24.746;2023-03-12T04:50:18;4.70;;;3.57;;
2674;SDS011;1347;42.122;24.746;2023-03-12T04:52:45;3.90;;;3.57;;
2674;SDS011;1347;42.122;24.746;2023-03-12T04:55:12;4.90;;;3.67;;
2674;SDS011;1347;42.122;24.746;2023-03-12T04:57:39;3.80;;;3.40;;
2674;SDS011;1347;42.122;24.746;2023-03-12T05:00:08;4.67;;;3.80;;
2674;SDS011;1347;42.122;24.746;2023-03-12T05:02:37;7.43;;;3.93;;
2674;SDS011;1347;42.122;24.746;2023-03-12T05:05:04;3.50;;;3.20;;
2674;SDS011;1347;42.122;24.746;2023-03-12T05:07:32;3.70;;;3.03;;
2674;SDS011;1347;42.122;24.746;2023-03-12T05:09:59;4.07;;;2.67;;
2674;SDS011;1347;42.122;24.746;2023-03-12T05:12:25;3.20;;;2.90;;
2674;SDS011;1347;42.122;24.746;2023-03-12T05:14:52;3.73;;;3.10;;
2674;SDS011;1347;42.122;24.746;2023-03-12T05:17:21;4.70;;;3.17;;
2674;SDS011;1347;42.122;24.746;2023-03-12T05:19:48;3.80;;;3.00;;
2674;SDS011;1347;42.122;24.746;2023-03-12T05:22:14;3.83;;;3.43;;
2674;SDS011;1347;42.122;24.746;2023-03-12T05:24:42;4.03;;;3.63;;
2674;SDS011;1347;42.122;24.746;2023-03-12T05:27:09;2.70;;;2.50;;
2674;SDS011;1347;42.122;24.746;2023-03-12T05:29:36;3.50;;;3.20;;
2674;SDS011;1347;42.122;24.746;2023-03-12T05:32:03;4.90;;;3.43;;
2674;SDS011;1347;42.122;24.746;2023-03-12T05:34:33;3.50;;;2.97;;
2674;SDS011;1347;42.122;24.746;2023-03-12T05:37:00;3.97;;;3.30;;
2674;SDS011;1347;42.122;24.746;2023-03-12T05:39:26;3.97;;;3.57;;
2674;SDS011;1347;42.122;24.746;2023-03-12T05:41:53;4.23;;;2.80;;
2674;SDS011;1347;42.122;24.746;2023-03-12T05:44:21;5.27;;;3.03;;
2674;SDS011;1347;42.122;24.746;2023-03-12T05:46:48;3.40;;;2.90;;
2674;SDS011;1347;42.122;24.746;2023-03-12T05:49:15;4.80;;;3.20;;
2674;SDS011;1347;42.122;24.746;2023-03-12T05:51:44;5.17;;;3.83;;
2674;SDS011;1347;42.122;24.746;2023-03-12T05:54:12;4.03;;;3.07;;
2674;SDS011;1347;42.122;24.746;2023-03-12T05:56:39;3.20;;;2.90;;
2674;SDS011;1347;42.122;24.746;2023-03-12T05:59:06;7.70;;;2.90;;
2674;SDS011;1347;42.122;24.746;2023-03-12T06:01:34;3.13;;;2.87;;
2674;SDS011;1347;42.122;24.746;2023-03-12T06:04:02;5.10;;;3.13;;
2674;SDS011;1347;42.122;24.746;2023-03-12T06:06:29;4.53;;;3.03;;
2674;SDS011;1347;42.122;24.746;2023-03-12T06:08:58;4.20;;;3.10;;
2674;SDS011;1347;42.122;24.746;2023-03-12T06:11:25;3.97;;;3.57;;
2674;SDS011;1347;42.122;24.746;2023-03-12T06:13:52;3.43;;;3.10;;
2674;SDS011;1347;42.122;24.746;2023-03-12T06:16:20;4.00;;;3.23;;
2674;SDS011;1347;42.122;24.746;2023-03-12T06:18:48;3.90;;;3.17;;
2674;SDS011;1347;42.122;24.746;2023-03-12T06:21:19;3.10;;;2.47;;
2674;SDS011;1347;42.122;24.746;2023-03-12T06:23:47;4.03;;;2.57;;
2674;SDS011;1347;42.122;24.746;2023-03-12T06:26:16;5.77;;;4.30;;
2674;SDS011;1347;42.122;24.746;2023-03-12T06:28:44;2.47;;;2.27;;
2674;SDS011;1347;42.122;24.746;2023-03-12T06:31:12;4.23;;;3.00;;
2674;SDS011;1347;42.122;24.746;2023-03-12T06:33:39;3.90;;;2.50;;
2674;SDS011;1347;42.122;24.746;2023-03-12T06:36:07;3.00;;;2.10;;
2674;SDS011;1347;42.122;24.746;2023-03-12T06:38:35;3.77;;;2.60;;
2674;SDS011;1347;42.122;24.746;2023-03-12T06:41:03;2.90;;;2.27;;
2674;SDS011;1347;42.122;24.746;2023-03-12T06:43:33;3.17;;;2.07;;
2674;SDS011;1347;42.122;24.746;2023-03-12T06:46:01;2.73;;;2.30;;
2674;SDS011;1347;42.122;24.746;2023-03-12T06:48:30;2.97;;;2.50;;
2674;SDS011;1347;42.122;24.746;2023-03-12T06:51:00;2.40;;;2.20;;
2674;SDS011;1347;42.122;24.746;2023-03-12T06:53:27;2.40;;;2.13;;
2674;SDS011;1347;42.122;24.746;2023-03-12T06:55:55;2.63;;;2.00;;
2674;SDS011;1347;42.122;24.746;2023-03-12T06:58:22;2.70;;;1.70;;
2674;SDS011;1347;42.122;24.746;2023-03-12T07:00:50;2.70;;;2.03;;
2674;SDS011;1347;42.122;24.746;2023-03-12T07:03:17;4.60;;;1.80;;
2674;SDS011;1347;42.122;24.746;2023-03-12T07:05:44;4.33;;;2.07;;
2674;SDS011;1347;42.122;24.746;2023-03-12T07:08:12;2.77;;;1.80;;
2674;SDS011;1347;42.122;24.746;2023-03-12T07:10:39;2.33;;;2.13;;
2674;SDS011;1347;42.122;24.746;2023-03-12T07:13:06;2.80;;;1.80;;
2674;SDS011;1347;42.122;24.746;2023-03-12T07:15:33;1.90;;;1.57;;
2674;SDS011;1347;42.122;24.746;2023-03-12T07:18:02;3.90;;;1.70;;
2674;SDS011;1347;42.122;24.746;2023-03-12T07:20:29;3.30;;;2.00;;
2674;SDS011;1347;42.122;24.746;2023-03-12T07:22:56;2.53;;;1.50;;
2674;SDS011;1347;42.122;24.746;2023-03-12T07:25:24;2.40;;;1.60;;
2674;SDS011;1347;42.122;24.746;2023-03-12T07:27:51;1.90;;;1.67;;
2674;SDS011;1347;42.122;24.746;2023-03-12T07:30:18;2.60;;;1.87;;
2674;SDS011;1347;42.122;24.746;2023-03-12T07:32:44;3.20;;;1.77;;
2674;SDS011;1347;42.122;24.746;2023-03-12T07:35:13;5.00;;;1.97;;
2674;SDS011;1347;42.122;24.746;2023-03-12T07:37:40;2.50;;;2.10;;
2674;SDS011;1347;42.122;24.746;2023-03-12T07:40:07;6.83;;;2.43;;
2674;SDS011;1347;42.122;24.746;2023-03-12T07:42:35;1.60;;;1.37;;
2674;SDS011;1347;42.122;24.746;2023-03-12T07:45:02;3.00;;;1.93;;
2674;SDS011;1347;42.122;24.746;2023-03-12T07:47:29;2.60;;;1.97;;
2674;SDS011;1347;42.122;24.746;2023-03-12T07:49:56;4.13;;;2.20;;
2674;SDS011;1347;42.122;24.746;2023-03-12T07:52:24;3.00;;;2.13;;
2674;SDS011;1347;42.122;24.746;2023-03-12T07:54:52;3.50;;;1.77;;
2674;SDS011;1347;42.122;24.746;2023-03-12T07:57:20;3.67;;;2.00;;
2674;SDS011;1347;42.122;24.746;2023-03-12T07:59:47;2.10;;;1.90;;
2674;SDS011;1347;42.122;24.746;2023-03-12T08:02:14;4.40;;;2.33;;
2674;SDS011;1347;42.122;24.746;2023-03-12T08:04:41;2.40;;;2.20;;
2674;SDS011;1347;42.122;24.746;2023-03-12T08:07:08;2.47;;;2.27;;
2674;SDS011;1347;42.122;24.746;2023-03-12T08:09:36;4.70;;;2.80;;
2674;SDS011;1347;42.122;24.746;2023-03-12T08:12:04;2.80;;;2.10;;
2674;SDS011;1347;42.122;24.746;2023-03-12T08:14:31;4.23;;;2.40;;
2674;SDS011;1347;42.122;24.746;2023-03-12T08:16:58;4.97;;;2.70;;
2674;SDS011;1347;42.122;24.746;2023-03-12T08:19:25;3.07;;;2.40;;
2674;SDS011;1347;42.122;24.746;2023-03-12T08:21:53;3.73;;;2.57;;
2674;SDS011;1347;42.122;24.746;2023-03-12T08:24:22;2.50;;;2.30;;
2674;SDS011;1347;42.122;24.746;2023-03-12T08:26:50;3.40;;;2.47;;
2674;SDS011;1347;42.122;24.746;2023-03-12T08:29:17;3.17;;;2.37;;
2674;SDS011;1347;42.122;24.746;2023-03-12T08:31:44;2.40;;;2.20;;
2674;SDS011;1347;42.122;24.746;2023-03-12T08:34:11;3.20;;;2.60;;
2674;SDS011;1347;42.122;24.746;2023-03-12T08:36:38;3.57;;;2.60;;
2674;SDS011;1347;42.122;24.746;2023-03-12T08:39:05;2.60;;;2.40;;
2674;SDS011;1347;42.122;24.746;2023-03-12T08:41:32;4.53;;;2.67;;
2674;SDS011;1347;42.122;24.746;2023-03-12T08:44:00;3.60;;;2.13;;
2674;SDS011;1347;42.122;24.746;2023-03-12T08:46:27;3.00;;;2.00;;
2674;SDS011;1347;42.122;24.746;2023-03-12T08:48:54;3.57;;;1.77;;
2674;SDS011;1347;42.122;24.746;2023-03-12T08:51:21;2.50;;;2.23;;
2674;SDS011;1347;42.122;24.746;2023-03-12T08:53:48;2.57;;;2.27;;
2674;SDS011;1347;42.122;24.746;2023-03-12T08:56:15;3.13;;;2.67;;
2674;SDS011;1347;42.122;24.746;2023-03-12T08:58:41;2.37;;;2.13;;
2674;SDS011;1347;42.122;24.746;2023-03-12T09:01:10;2.43;;;2.07;;
2674;SDS011;1347;42.122;24.746;2023-03-12T09:03:38;6.77;;;2.30;;
2674;SDS011;1347;42.122;24.746;2023-03-12T09:06:06;2.93;;;2.47;;
2674;SDS011;1347;42.122;24.746;2023-03-12T09:08:37;2.53;;;2.27;;
2674;SDS011;1347;42.122;24.746;2023-03-12T09:11:05;2.23;;;2.03;;
2674;SDS011;1347;42.122;24.746;2023-03-12T09:13:32;2.43;;;2.20;;
2674;SDS011;1347;42.122;24.746;2023-03-12T09:15:59;2.23;;;2.03;;
2674;SDS011;1347;42.122;24.746;2023-03-12T09:18:29;2.50;;;2.30;;
2674;SDS011;1347;42.122;24.746;2023-03-12T09:20:56;3.13;;;2.83;;
2674;SDS011;1347;42.122;24.746;2023-03-12T09:23:23;4.60;;;2.67;;
2674;SDS011;1347;42.122;24.746;2023-03-12T09:25:51;3.30;;;2.40;;
2674;SDS011;1347;42.122;24.746;2023-03-12T09:28:18;5.37;;;2.50;;
2674;SDS011;1347;42.122;24.746;2023-03-12T09:30:45;2.47;;;1.90;;
2674;SDS011;1347;42.122;24.746;2023-03-12T09:33:13;5.37;;;2.50;;
2674;SDS011;1347;42.122;24.746;2023-03-12T09:35:41;2.30;;;1.93;;
2674;SDS011;1347;42.122;24.746;2023-03-12T09:38:10;2.90;;;1.97;;
2674;SDS011;1347;42.122;24.746;2023-03-12T09:40:39;7.27;;;3.10;;
2674;SDS011;1347;42.122;24.746;2023-03-12T09:43:12;3.43;;;2.10;;
2674;SDS011;1347;42.122;24.746;2023-03-12T09:45:46;2.47;;;2.10;;
2674;SDS011;1347;42.122;24.746;2023-03-12T09:48:15;4.23;;;2.80;;
2674;SDS011;1347;42.122;24.746;2023-03-12T09:50:47;2.70;;;2.50;;
2674;SDS011;1347;42.122;24.746;2023-03-12T09:53:17;2.73;;;2.40;;
2674;SDS011;1347;42.122;24.746;2023-03-12T09:55:51;2.83;;;2.57;;
2674;SDS011;1347;42.122;24.746;2023-03-12T09:58:21;3.37;;;2.33;;
2674;SDS011;1347;42.122;24.746;2023-03-12T10:00:54;2.53;;;2.10;;
2674;SDS011;1347;42.122;24.746;2023-03-12T10:03:41;3.27;;;2.87;;
2674;SDS011;1347;42.122;24.746;2023-03-12T10:06:21;2.50;;;2.30;;
2674;SDS011;1347;42.122;24.746;2023-03-12T10:08:57;3.90;;;3.10;;
2674;SDS011;1347;42.122;24.746;2023-03-12T10:11:35;3.07;;;2.77;;
2674;SDS011;1347;42.122;24.746;2023-03-12T10:14:16;4.10;;;2.67;;
2674;SDS011;1347;42.122;24.746;2023-03-12T10:16:57;3.00;;;2.73;;
2674;SDS011;1347;42.122;24.746;2023-03-12T10:19:44;6.90;;;2.87;;
2674;SDS011;1347;42.122;24.746;2023-03-12T10:22:26;2.93;;;2.53;;
2674;SDS011;1347;42.122;24.746;2023-03-12T10:25:04;3.07;;;2.77;;
2674;SDS011;1347;42.122;24.746;2023-03-12T10:27:39;2.70;;;2.50;;
2674;SDS011;1347;42.122;24.746;2023-03-12T10:30:12;3.40;;;2.73;;
2674;SDS011;1347;42.122;24.746;2023-03-12T10:32:43;3.23;;;2.93;;
2674;SDS011;1347;42.122;24.746;2023-03-12T10:35:14;4.50;;;3.60;;
2674;SDS011;1347;42.122;24.746;2023-03-12T10:37:44;5.00;;;2.70;;
2674;SDS011;1347;42.122;24.746;2023-03-12T10:40:14;3.17;;;2.60;;
2674;SDS011;1347;42.122;24.746;2023-03-12T10:42:42;3.30;;;2.90;;
2674;SDS011;1347;42.122;24.746;2023-03-12T10:45:13;4.63;;;3.20;;
2674;SDS011;1347;42.122;24.746;2023-03-12T10:47:58;3.70;;;2.83;;
2674;SDS011;1347;42.122;24.746;2023-03-12T10:50:28;4.23;;;3.00;;
2674;SDS011;1347;42.122;24.746;2023-03-12T10:56:00;3.80;;;3.40;;
2674;SDS011;1347;42.122;24.746;2023-03-12T10:58:33;5.73;;;2.97;;
2674;SDS011;1347;42.122;24.746;2023-03-12T11:01:02;2.40;;;2.20;;
2674;SDS011;1347;42.122;24.746;2023-03-12T11:03:31;4.40;;;3.00;;
2674;SDS011;1347;42.122;24.746;2023-03-12T11:05:59;5.43;;;3.40;;
2674;SDS011;1347;42.122;24.746;2023-03-12T11:08:27;3.20;;;2.90;;
2674;SDS011;1347;42.122;24.746;2023-03-12T11:10:56;4.30;;;3.53;;
2674;SDS011;1347;42.122;24.746;2023-03-12T11:13:30;3.00;;;2.70;;
2674;SDS011;1347;42.122;24.746;2023-03-12T11:15:59;6.23;;;2.87;;
2674;SDS011;1347;42.122;24.746;2023-03-12T11:18:29;3.50;;;3.10;;
2674;SDS011;1347;42.122;24.746;2023-03-12T11:21:12;4.03;;;2.83;;
2674;SDS011;1347;42.122;24.746;2023-03-12T11:23:42;4.80;;;2.60;;
2674;SDS011;1347;42.122;24.746;2023-03-12T11:26:13;4.00;;;2.60;;
2674;SDS011;1347;42.122;24.746;2023-03-12T11:28:45;2.73;;;2.47;;
2674;SDS011;1347;42.122;24.746;2023-03-12T11:31:18;3.40;;;2.47;;
2674;SDS011;1347;42.122;24.746;2023-03-12T11:33:48;4.80;;;2.70;;
2674;SDS011;1347;42.122;24.746;2023-03-12T11:36:21;2.40;;;2.00;;
2674;SDS011;1347;42.122;24.746;2023-03-12T11:38:57;3.17;;;2.20;;
2674;SDS011;1347;42.122;24.746;2023-03-12T11:41:33;5.40;;;3.10;;
2674;SDS011;1347;42.122;24.746;2023-03-12T11:44:18;2.37;;;2.07;;
2674;SDS011;1347;42.122;24.746;2023-03-12T11:46:52;3.07;;;2.43;;
2674;SDS011;1347;42.122;24.746;2023-03-12T11:49:35;3.10;;;2.80;;
2674;SDS011;1347;42.122;24.746;2023-03-12T11:52:16;3.37;;;2.70;;
2674;SDS011;1347;42.122;24.746;2023-03-12T11:55:00;4.67;;;3.27;;
2674;SDS011;1347;42.122;24.746;2023-03-12T11:57:45;2.90;;;2.60;;
2674;SDS011;1347;42.122;24.746;2023-03-12T12:00:25;2.83;;;2.40;;
2674;SDS011;1347;42.122;24.746;2023-03-12T12:03:13;6.63;;;2.70;;
2674;SDS011;1347;42.122;24.746;2023-03-12T12:05:57;3.60;;;2.90;;
2674;SDS011;1347;42.122;24.746;2023-03-12T12:08:36;3.10;;;2.70;;
2674;SDS011;1347;42.122;24.746;2023-03-12T12:11:17;3.07;;;2.77;;
2674;SDS011;1347;42.122;24.746;2023-03-12T12:13:56;3.30;;;2.77;;
2674;SDS011;1347;42.122;24.746;2023-03-12T12:16:41;3.97;;;2.77;;
2674;SDS011;1347;42.122;24.746;2023-03-12T12:19:20;4.27;;;2.40;;
2674;SDS011;1347;42.122;24.746;2023-03-12T12:21:58;3.93;;;2.67;;
2674;SDS011;1347;42.122;24.746;2023-03-12T12:24:53;2.80;;;2.60;;
2674;SDS011;1347;42.122;24.746;2023-03-12T12:27:34;4.30;;;2.33;;
2674;SDS011;1347;42.122;24.746;2023-03-12T12:30:13;3.30;;;2.90;;
2674;SDS011;1347;42.122;24.746;2023-03-12T12:33:01;2.80;;;2.60;;
2674;SDS011;1347;42.122;24.746;2023-03-12T12:35:40;3.40;;;2.80;;
2674;SDS011;1347;42.122;24.746;2023-03-12T12:38:09;2.97;;;2.60;;
2674;SDS011;1347;42.122;24.746;2023-03-12T12:40:40;2.77;;;2.30;;
2674;SDS011;1347;42.122;24.746;2023-03-12T12:43:15;2.83;;;2.53;;
2674;SDS011;1347;42.122;24.746;2023-03-12T12:45:52;3.70;;;2.53;;
2674;SDS011;1347;42.122;24.746;2023-03-12T12:48:24;3.73;;;2.43;;
2674;SDS011;1347;42.122;24.746;2023-03-12T12:50:56;2.53;;;2.07;;
2674;SDS011;1347;42.122;24.746;2023-03-12T12:53:25;2.83;;;2.27;;
2674;SDS011;1347;42.122;24.746;2023-03-12T12:56:00;3.97;;;2.30;;
2674;SDS011;1347;42.122;24.746;2023-03-12T13:01:23;2.30;;;2.00;;
2674;SDS011;1347;42.122;24.746;2023-03-12T13:03:53;2.30;;;1.73;;
2674;SDS011;1347;42.122;24.746;2023-03-12T13:06:26;2.33;;;2.13;;
2674;SDS011;1347;42.122;24.746;2023-03-12T13:08:58;2.10;;;1.90;;
2674;SDS011;1347;42.122;24.746;2023-03-12T13:11:28;4.07;;;2.10;;
2674;SDS011;1347;42.122;24.746;2023-03-12T13:20:05;2.37;;;2.17;;
2674;SDS011;1347;42.122;24.746;2023-03-12T13:25:43;2.90;;;2.10;;
2674;SDS011;1347;42.122;24.746;2023-03-12T13:28:27;2.97;;;2.50;;
2674;SDS011;1347;42.122;24.746;2023-03-12T13:30:59;2.37;;;2.17;;
2674;SDS011;1347;42.122;24.746;2023-03-12T13:36:20;3.50;;;2.70;;
2674;SDS011;1347;42.122;24.746;2023-03-12T13:38:53;3.60;;;2.30;;
2674;SDS011;1347;42.122;24.746;2023-03-12T13:41:30;2.73;;;2.53;;
2674;SDS011;1347;42.122;24.746;2023-03-12T13:43:59;2.77;;;2.30;;
2674;SDS011;1347;42.122;24.746;2023-03-12T13:46:43;2.73;;;2.00;;
2674;SDS011;1347;42.122;24.746;2023-03-12T13:49:15;2.07;;;1.90;;
2674;SDS011;1347;42.122;24.746;2023-03-12T13:51:47;3.90;;;2.47;;
2674;SDS011;1347;42.122;24.746;2023-03-12T13:54:22;3.80;;;2.10;;
2674;SDS011;1347;42.122;24.746;2023-03-12T13:56:54;2.43;;;1.90;;
2674;SDS011;1347;42.122;24.746;2023-03-12T13:59:25;3.20;;;2.50;;
2674;SDS011;1347;42.122;24.746;2023-03-12T14:01:55;2.97;;;2.40;;
2674;SDS011;1347;42.122;24.746;2023-03-12T14:04:27;3.03;;;2.63;;
2674;SDS011;1347;42.122;24.746;2023-03-12T14:07:03;2.53;;;2.33;;
2674;SDS011;1347;42.122;24.746;2023-03-12T14:09:41;2.90;;;2.43;;
2674;SDS011;1347;42.122;24.746;2023-03-12T14:12:17;2.70;;;2.10;;
2674;SDS011;1347;42.122;24.746;2023-03-12T14:14:56;2.60;;;2.30;;
2674;SDS011;1347;42.122;24.746;2023-03-12T14:17:30;3.90;;;2.63;;
2674;SDS011;1347;42.122;24.746;2023-03-12T14:19:59;2.60;;;2.40;;
2674;SDS011;1347;42.122;24.746;2023-03-12T14:22:31;2.73;;;2.40;;
2674;SDS011;1347;42.122;24.746;2023-03-12T14:25:01;4.47;;;2.47;;
2674;SDS011;1347;42.122;24.746;2023-03-12T14:27:32;2.77;;;2.30;;
2674;SDS011;1347;42.122;24.746;2023-03-12T14:30:03;2.50;;;2.30;;
2674;SDS011;1347;42.122;24.746;2023-03-12T14:32:38;2.60;;;2.20;;
2674;SDS011;1347;42.122;24.746;2023-03-12T14:35:12;2.40;;;2.17;;
2674;SDS011;1347;42.122;24.746;2023-03-12T14:37:50;3.00;;;2.70;;
2674;SDS011;1347;42.122;24.746;2023-03-12T14:40:22;3.67;;;2.37;;
2674;SDS011;1347;42.122;24.746;2023-03-12T14:42:58;2.50;;;2.23;;
2674;SDS011;1347;42.122;24.746;2023-03-12T14:45:25;3.00;;;2.60;;
2674;SDS011;1347;42.122;24.746;2023-03-12T14:47:54;2.87;;;2.67;;
2674;SDS011;1347;42.122;24.746;2023-03-12T14:50:23;3.20;;;2.40;;
2674;SDS011;1347;42.122;24.746;2023-03-12T14:52:54;2.07;;;1.87;;
2674;SDS011;1347;42.122;24.746;2023-03-12T14:55:22;2.33;;;2.10;;
2674;SDS011;1347;42.122;24.746;2023-03-12T14:58:01;3.20;;;2.10;;
2674;SDS011;1347;42.122;24.746;2023-03-12T15:00:29;3.13;;;2.83;;
2674;SDS011;1347;42.122;24.746;2023-03-12T15:02:56;2.93;;;2.63;;
2674;SDS011;1347;42.122;24.746;2023-03-12T15:05:28;3.73;;;2.20;;
2674;SDS011;1347;42.122;24.746;2023-03-12T15:07:59;2.10;;;1.90;;
2674;SDS011;1347;42.122;24.746;2023-03-12T15:10:29;2.67;;;2.43;;
2674;SDS011;1347;42.122;24.746;2023-03-12T15:12:58;6.50;;;2.20;;
2674;SDS011;1347;42.122;24.746;2023-03-12T15:15:28;2.80;;;2.37;;
2674;SDS011;1347;42.122;24.746;2023-03-12T15:18:02;5.13;;;2.50;;
2674;SDS011;1347;42.122;24.746;2023-03-12T15:20:32;3.93;;;2.20;;
2674;SDS011;1347;42.122;24.746;2023-03-12T15:23:01;3.93;;;2.13;;
2674;SDS011;1347;42.122;24.746;2023-03-12T15:25:30;3.07;;;2.77;;
2674;SDS011;1347;42.122;24.746;2023-03-12T15:28:00;3.13;;;1.97;;
2674;SDS011;1347;42.122;24.746;2023-03-12T15:30:28;3.10;;;2.07;;
2674;SDS011;1347;42.122;24.746;2023-03-12T15:33:05;6.13;;;2.30;;
2674;SDS011;1347;42.122;24.746;2023-03-12T15:35:35;11.87;;;8.80;;